<?xml version="1.0" encoding="UTF-8" standalone="no" ?>
<gpx xmlns="http://www.topografix.com/GPX/1/1" xmlns:xsi="http://www.w3.org/2001/XMLSchema-instance" xsi:schemaLocation="http://www.topografix.com/GPX/1/1 http://www.topografix.com/GPX/1/1/gpx.xsd" version="1.1" creator="VisuGPX - https://www.visugpx.com">
  <metadata>
    <name>Randonnée raquettes au trois fours.</name>
    <desc><![CDATA[randonnée raquettes au trois fours]]></desc>
  </metadata>
  <trk>
    <name><![CDATA[2015-12-01 15:54:00]]></name>
    <trkseg>
      <trkpt lat="48.05219" lon="7.01459">
        <ele>1223.34</ele>
        <time>2015-12-01T09:05:34Z</time>
      </trkpt>
      <trkpt lat="48.05221" lon="7.01457">
        <ele>1223.15</ele>
        <time>2015-12-01T09:09:55Z</time>
      </trkpt>
      <trkpt lat="48.05218" lon="7.01455">
        <ele>1224.12</ele>
        <time>2015-12-01T09:12:43Z</time>
      </trkpt>
      <trkpt lat="48.05201" lon="7.01466">
        <ele>1226.03</ele>
        <time>2015-12-01T09:13:10Z</time>
      </trkpt>
      <trkpt lat="48.052" lon="7.01476">
        <ele>1225.38</ele>
        <time>2015-12-01T09:14:26Z</time>
      </trkpt>
      <trkpt lat="48.05211" lon="7.0146">
        <ele>1223.45</ele>
        <time>2015-12-01T09:15:41Z</time>
      </trkpt>
      <trkpt lat="48.05203" lon="7.01452">
        <ele>1223.41</ele>
        <time>2015-12-01T09:16:13Z</time>
      </trkpt>
      <trkpt lat="48.05203" lon="7.01458">
        <ele>1222.89</ele>
        <time>2015-12-01T09:18:44Z</time>
      </trkpt>
      <trkpt lat="48.0521" lon="7.01452">
        <ele>1223.46</ele>
        <time>2015-12-01T09:23:27Z</time>
      </trkpt>
      <trkpt lat="48.05232" lon="7.0145">
        <ele>1221.45</ele>
        <time>2015-12-01T09:24:15Z</time>
      </trkpt>
      <trkpt lat="48.05245" lon="7.01428">
        <ele>1219.67</ele>
        <time>2015-12-01T09:24:46Z</time>
      </trkpt>
      <trkpt lat="48.05259" lon="7.01396">
        <ele>1216.48</ele>
        <time>2015-12-01T09:25:25Z</time>
      </trkpt>
      <trkpt lat="48.05273" lon="7.0136">
        <ele>1211.88</ele>
        <time>2015-12-01T09:26:00Z</time>
      </trkpt>
      <trkpt lat="48.05271" lon="7.01345">
        <ele>1213.39</ele>
        <time>2015-12-01T09:27:10Z</time>
      </trkpt>
      <trkpt lat="48.05276" lon="7.01358">
        <ele>1212.51</ele>
        <time>2015-12-01T09:28:45Z</time>
      </trkpt>
      <trkpt lat="48.05291" lon="7.0133">
        <ele>1209.01</ele>
        <time>2015-12-01T09:29:23Z</time>
      </trkpt>
      <trkpt lat="48.05317" lon="7.01313">
        <ele>1206.54</ele>
        <time>2015-12-01T09:29:56Z</time>
      </trkpt>
      <trkpt lat="48.0534" lon="7.01299">
        <ele>1205.4</ele>
        <time>2015-12-01T09:30:29Z</time>
      </trkpt>
      <trkpt lat="48.0536" lon="7.01277">
        <ele>1201.36</ele>
        <time>2015-12-01T09:31:09Z</time>
      </trkpt>
      <trkpt lat="48.05375" lon="7.01248">
        <ele>1199.09</ele>
        <time>2015-12-01T09:31:34Z</time>
      </trkpt>
      <trkpt lat="48.05381" lon="7.01215">
        <ele>1197.63</ele>
        <time>2015-12-01T09:31:59Z</time>
      </trkpt>
      <trkpt lat="48.0538" lon="7.01196">
        <ele>1194.29</ele>
        <time>2015-12-01T09:32:36Z</time>
      </trkpt>
      <trkpt lat="48.05391" lon="7.01168">
        <ele>1189.34</ele>
        <time>2015-12-01T09:33:17Z</time>
      </trkpt>
      <trkpt lat="48.05398" lon="7.0115">
        <ele>1189.48</ele>
        <time>2015-12-01T09:34:24Z</time>
      </trkpt>
      <trkpt lat="48.05405" lon="7.01133">
        <ele>1186.14</ele>
        <time>2015-12-01T09:35:14Z</time>
      </trkpt>
      <trkpt lat="48.05404" lon="7.01109">
        <ele>1184.86</ele>
        <time>2015-12-01T09:36:15Z</time>
      </trkpt>
      <trkpt lat="48.05394" lon="7.01117">
        <ele>1186.27</ele>
        <time>2015-12-01T09:37:01Z</time>
      </trkpt>
      <trkpt lat="48.05374" lon="7.01125">
        <ele>1187.14</ele>
        <time>2015-12-01T09:37:54Z</time>
      </trkpt>
      <trkpt lat="48.05352" lon="7.01126">
        <ele>1189.16</ele>
        <time>2015-12-01T09:38:27Z</time>
      </trkpt>
      <trkpt lat="48.05326" lon="7.0112">
        <ele>1190.23</ele>
        <time>2015-12-01T09:38:59Z</time>
      </trkpt>
      <trkpt lat="48.05305" lon="7.01108">
        <ele>1194.14</ele>
        <time>2015-12-01T09:39:32Z</time>
      </trkpt>
      <trkpt lat="48.05279" lon="7.01091">
        <ele>1193.64</ele>
        <time>2015-12-01T09:40:01Z</time>
      </trkpt>
      <trkpt lat="48.05258" lon="7.01071">
        <ele>1196</ele>
        <time>2015-12-01T09:40:36Z</time>
      </trkpt>
      <trkpt lat="48.05236" lon="7.01052">
        <ele>1197.7</ele>
        <time>2015-12-01T09:41:12Z</time>
      </trkpt>
      <trkpt lat="48.05214" lon="7.0104">
        <ele>1200.45</ele>
        <time>2015-12-01T09:41:50Z</time>
      </trkpt>
      <trkpt lat="48.0519" lon="7.01031">
        <ele>1201.1</ele>
        <time>2015-12-01T09:42:22Z</time>
      </trkpt>
      <trkpt lat="48.05179" lon="7.01016">
        <ele>1201.22</ele>
        <time>2015-12-01T09:43:28Z</time>
      </trkpt>
      <trkpt lat="48.05174" lon="7.01007">
        <ele>1200.5</ele>
        <time>2015-12-01T09:44:48Z</time>
      </trkpt>
      <trkpt lat="48.05154" lon="7.01005">
        <ele>1203.39</ele>
        <time>2015-12-01T09:45:21Z</time>
      </trkpt>
      <trkpt lat="48.0513" lon="7.00999">
        <ele>1204.5</ele>
        <time>2015-12-01T09:45:54Z</time>
      </trkpt>
      <trkpt lat="48.05105" lon="7.00995">
        <ele>1206.08</ele>
        <time>2015-12-01T09:46:28Z</time>
      </trkpt>
      <trkpt lat="48.05083" lon="7.00998">
        <ele>1207.39</ele>
        <time>2015-12-01T09:47:02Z</time>
      </trkpt>
      <trkpt lat="48.05059" lon="7.00997">
        <ele>1209.59</ele>
        <time>2015-12-01T09:47:36Z</time>
      </trkpt>
      <trkpt lat="48.05033" lon="7.00992">
        <ele>1210.53</ele>
        <time>2015-12-01T09:48:11Z</time>
      </trkpt>
      <trkpt lat="48.0501" lon="7.00988">
        <ele>1211.77</ele>
        <time>2015-12-01T09:48:44Z</time>
      </trkpt>
      <trkpt lat="48.04986" lon="7.00977">
        <ele>1211.37</ele>
        <time>2015-12-01T09:49:16Z</time>
      </trkpt>
      <trkpt lat="48.04962" lon="7.00951">
        <ele>1212.62</ele>
        <time>2015-12-01T09:49:44Z</time>
      </trkpt>
      <trkpt lat="48.04943" lon="7.0094">
        <ele>1213.91</ele>
        <time>2015-12-01T09:50:11Z</time>
      </trkpt>
      <trkpt lat="48.04926" lon="7.00928">
        <ele>1214.21</ele>
        <time>2015-12-01T09:50:39Z</time>
      </trkpt>
      <trkpt lat="48.04921" lon="7.00919">
        <ele>1214.2</ele>
        <time>2015-12-01T09:51:36Z</time>
      </trkpt>
      <trkpt lat="48.04923" lon="7.00892">
        <ele>1207.78</ele>
        <time>2015-12-01T09:51:58Z</time>
      </trkpt>
      <trkpt lat="48.04921" lon="7.00865">
        <ele>1202.23</ele>
        <time>2015-12-01T09:52:19Z</time>
      </trkpt>
      <trkpt lat="48.04928" lon="7.00839">
        <ele>1196.11</ele>
        <time>2015-12-01T09:52:42Z</time>
      </trkpt>
      <trkpt lat="48.04931" lon="7.00811">
        <ele>1189.5</ele>
        <time>2015-12-01T09:53:05Z</time>
      </trkpt>
      <trkpt lat="48.04937" lon="7.00786">
        <ele>1184.23</ele>
        <time>2015-12-01T09:53:41Z</time>
      </trkpt>
      <trkpt lat="48.04933" lon="7.0076">
        <ele>1179.74</ele>
        <time>2015-12-01T09:54:46Z</time>
      </trkpt>
      <trkpt lat="48.04938" lon="7.00738">
        <ele>1172.1</ele>
        <time>2015-12-01T09:55:07Z</time>
      </trkpt>
      <trkpt lat="48.04941" lon="7.0071">
        <ele>1166.32</ele>
        <time>2015-12-01T09:55:38Z</time>
      </trkpt>
      <trkpt lat="48.04935" lon="7.00692">
        <ele>1161.85</ele>
        <time>2015-12-01T09:55:58Z</time>
      </trkpt>
      <trkpt lat="48.04915" lon="7.00699">
        <ele>1165.22</ele>
        <time>2015-12-01T09:56:23Z</time>
      </trkpt>
      <trkpt lat="48.04893" lon="7.00694">
        <ele>1167.59</ele>
        <time>2015-12-01T09:57:00Z</time>
      </trkpt>
      <trkpt lat="48.04877" lon="7.00689">
        <ele>1169.11</ele>
        <time>2015-12-01T09:57:49Z</time>
      </trkpt>
      <trkpt lat="48.04857" lon="7.00689">
        <ele>1172.32</ele>
        <time>2015-12-01T09:58:22Z</time>
      </trkpt>
      <trkpt lat="48.04832" lon="7.00691">
        <ele>1174.57</ele>
        <time>2015-12-01T09:59:00Z</time>
      </trkpt>
      <trkpt lat="48.04807" lon="7.00684">
        <ele>1177.71</ele>
        <time>2015-12-01T09:59:40Z</time>
      </trkpt>
      <trkpt lat="48.04785" lon="7.00689">
        <ele>1180.55</ele>
        <time>2015-12-01T10:00:20Z</time>
      </trkpt>
      <trkpt lat="48.04766" lon="7.0069">
        <ele>1182.46</ele>
        <time>2015-12-01T10:01:02Z</time>
      </trkpt>
      <trkpt lat="48.0476" lon="7.00679">
        <ele>1182.18</ele>
        <time>2015-12-01T10:02:12Z</time>
      </trkpt>
      <trkpt lat="48.04756" lon="7.00684">
        <ele>1183.18</ele>
        <time>2015-12-01T10:03:07Z</time>
      </trkpt>
      <trkpt lat="48.04738" lon="7.00683">
        <ele>1185.7</ele>
        <time>2015-12-01T10:03:53Z</time>
      </trkpt>
      <trkpt lat="48.04734" lon="7.00679">
        <ele>1185.71</ele>
        <time>2015-12-01T10:06:04Z</time>
      </trkpt>
      <trkpt lat="48.04719" lon="7.00681">
        <ele>1187.63</ele>
        <time>2015-12-01T10:07:18Z</time>
      </trkpt>
      <trkpt lat="48.047" lon="7.0069">
        <ele>1190.43</ele>
        <time>2015-12-01T10:07:59Z</time>
      </trkpt>
      <trkpt lat="48.0468" lon="7.00693">
        <ele>1192.62</ele>
        <time>2015-12-01T10:08:41Z</time>
      </trkpt>
      <trkpt lat="48.04662" lon="7.007">
        <ele>1195.37</ele>
        <time>2015-12-01T10:09:20Z</time>
      </trkpt>
      <trkpt lat="48.04646" lon="7.00698">
        <ele>1196.52</ele>
        <time>2015-12-01T10:10:13Z</time>
      </trkpt>
      <trkpt lat="48.04623" lon="7.00696">
        <ele>1199.28</ele>
        <time>2015-12-01T10:10:50Z</time>
      </trkpt>
      <trkpt lat="48.04599" lon="7.00688">
        <ele>1202.21</ele>
        <time>2015-12-01T10:11:39Z</time>
      </trkpt>
      <trkpt lat="48.04576" lon="7.00678">
        <ele>1205.47</ele>
        <time>2015-12-01T10:12:17Z</time>
      </trkpt>
      <trkpt lat="48.04554" lon="7.00668">
        <ele>1207.13</ele>
        <time>2015-12-01T10:12:56Z</time>
      </trkpt>
      <trkpt lat="48.04529" lon="7.00661">
        <ele>1211.13</ele>
        <time>2015-12-01T10:13:38Z</time>
      </trkpt>
      <trkpt lat="48.04504" lon="7.00656">
        <ele>1212.55</ele>
        <time>2015-12-01T10:14:20Z</time>
      </trkpt>
      <trkpt lat="48.04485" lon="7.00637">
        <ele>1217.25</ele>
        <time>2015-12-01T10:14:59Z</time>
      </trkpt>
      <trkpt lat="48.04468" lon="7.00627">
        <ele>1217.7</ele>
        <time>2015-12-01T10:15:38Z</time>
      </trkpt>
      <trkpt lat="48.0445" lon="7.0061">
        <ele>1219.2</ele>
        <time>2015-12-01T10:16:16Z</time>
      </trkpt>
      <trkpt lat="48.04433" lon="7.00603">
        <ele>1221.54</ele>
        <time>2015-12-01T10:17:04Z</time>
      </trkpt>
      <trkpt lat="48.04417" lon="7.00591">
        <ele>1222.49</ele>
        <time>2015-12-01T10:18:49Z</time>
      </trkpt>
      <trkpt lat="48.044" lon="7.00579">
        <ele>1224.7</ele>
        <time>2015-12-01T10:19:18Z</time>
      </trkpt>
      <trkpt lat="48.04381" lon="7.00569">
        <ele>1227.3</ele>
        <time>2015-12-01T10:19:53Z</time>
      </trkpt>
      <trkpt lat="48.04362" lon="7.00552">
        <ele>1229.88</ele>
        <time>2015-12-01T10:20:33Z</time>
      </trkpt>
      <trkpt lat="48.0434" lon="7.0054">
        <ele>1232.32</ele>
        <time>2015-12-01T10:21:22Z</time>
      </trkpt>
      <trkpt lat="48.04321" lon="7.0053">
        <ele>1234.85</ele>
        <time>2015-12-01T10:22:12Z</time>
      </trkpt>
      <trkpt lat="48.04297" lon="7.00518">
        <ele>1236.42</ele>
        <time>2015-12-01T10:22:44Z</time>
      </trkpt>
      <trkpt lat="48.04276" lon="7.00522">
        <ele>1238.48</ele>
        <time>2015-12-01T10:23:20Z</time>
      </trkpt>
      <trkpt lat="48.04255" lon="7.00541">
        <ele>1240.59</ele>
        <time>2015-12-01T10:23:59Z</time>
      </trkpt>
      <trkpt lat="48.04248" lon="7.00544">
        <ele>1244.48</ele>
        <time>2015-12-01T10:25:36Z</time>
      </trkpt>
      <trkpt lat="48.04247" lon="7.00569">
        <ele>1248.13</ele>
        <time>2015-12-01T10:26:26Z</time>
      </trkpt>
      <trkpt lat="48.04252" lon="7.00591">
        <ele>1253.87</ele>
        <time>2015-12-01T10:27:29Z</time>
      </trkpt>
      <trkpt lat="48.04254" lon="7.00611">
        <ele>1256.53</ele>
        <time>2015-12-01T10:28:50Z</time>
      </trkpt>
      <trkpt lat="48.04257" lon="7.00641">
        <ele>1261.86</ele>
        <time>2015-12-01T10:30:03Z</time>
      </trkpt>
      <trkpt lat="48.04262" lon="7.0067">
        <ele>1266.13</ele>
        <time>2015-12-01T10:31:28Z</time>
      </trkpt>
      <trkpt lat="48.04267" lon="7.00695">
        <ele>1269.52</ele>
        <time>2015-12-01T10:32:33Z</time>
      </trkpt>
      <trkpt lat="48.04273" lon="7.0071">
        <ele>1273.97</ele>
        <time>2015-12-01T10:33:35Z</time>
      </trkpt>
      <trkpt lat="48.0428" lon="7.00735">
        <ele>1278.55</ele>
        <time>2015-12-01T10:34:23Z</time>
      </trkpt>
      <trkpt lat="48.04283" lon="7.00762">
        <ele>1284.53</ele>
        <time>2015-12-01T10:35:22Z</time>
      </trkpt>
      <trkpt lat="48.04287" lon="7.00789">
        <ele>1287.46</ele>
        <time>2015-12-01T10:36:04Z</time>
      </trkpt>
      <trkpt lat="48.04285" lon="7.00814">
        <ele>1291.61</ele>
        <time>2015-12-01T10:37:00Z</time>
      </trkpt>
      <trkpt lat="48.04297" lon="7.00833">
        <ele>1292.89</ele>
        <time>2015-12-01T10:37:43Z</time>
      </trkpt>
      <trkpt lat="48.04303" lon="7.0086">
        <ele>1297.23</ele>
        <time>2015-12-01T10:38:36Z</time>
      </trkpt>
      <trkpt lat="48.04292" lon="7.00882">
        <ele>1300.24</ele>
        <time>2015-12-01T10:39:22Z</time>
      </trkpt>
      <trkpt lat="48.04291" lon="7.00912">
        <ele>1301.91</ele>
        <time>2015-12-01T10:39:58Z</time>
      </trkpt>
      <trkpt lat="48.04294" lon="7.00944">
        <ele>1304.87</ele>
        <time>2015-12-01T10:40:32Z</time>
      </trkpt>
      <trkpt lat="48.04297" lon="7.00972">
        <ele>1305.25</ele>
        <time>2015-12-01T10:41:05Z</time>
      </trkpt>
      <trkpt lat="48.04311" lon="7.0099">
        <ele>1304.49</ele>
        <time>2015-12-01T10:41:22Z</time>
      </trkpt>
      <trkpt lat="48.04325" lon="7.01009">
        <ele>1302.6</ele>
        <time>2015-12-01T10:42:15Z</time>
      </trkpt>
      <trkpt lat="48.0433" lon="7.01033">
        <ele>1300.25</ele>
        <time>2015-12-01T10:43:17Z</time>
      </trkpt>
      <trkpt lat="48.04346" lon="7.01045">
        <ele>1299.65</ele>
        <time>2015-12-01T10:43:48Z</time>
      </trkpt>
      <trkpt lat="48.04361" lon="7.01063">
        <ele>1299.27</ele>
        <time>2015-12-01T10:44:08Z</time>
      </trkpt>
      <trkpt lat="48.04374" lon="7.0108">
        <ele>1296.98</ele>
        <time>2015-12-01T10:44:27Z</time>
      </trkpt>
      <trkpt lat="48.04388" lon="7.01097">
        <ele>1296.37</ele>
        <time>2015-12-01T10:44:48Z</time>
      </trkpt>
      <trkpt lat="48.04403" lon="7.01109">
        <ele>1294.57</ele>
        <time>2015-12-01T10:45:09Z</time>
      </trkpt>
      <trkpt lat="48.0442" lon="7.01119">
        <ele>1297.96</ele>
        <time>2015-12-01T10:45:27Z</time>
      </trkpt>
      <trkpt lat="48.04436" lon="7.01132">
        <ele>1296.53</ele>
        <time>2015-12-01T10:45:49Z</time>
      </trkpt>
      <trkpt lat="48.04453" lon="7.01146">
        <ele>1295.38</ele>
        <time>2015-12-01T10:46:09Z</time>
      </trkpt>
      <trkpt lat="48.04469" lon="7.0116">
        <ele>1295.19</ele>
        <time>2015-12-01T10:46:28Z</time>
      </trkpt>
      <trkpt lat="48.04484" lon="7.01175">
        <ele>1292.3</ele>
        <time>2015-12-01T10:46:48Z</time>
      </trkpt>
      <trkpt lat="48.045" lon="7.0119">
        <ele>1290.14</ele>
        <time>2015-12-01T10:47:08Z</time>
      </trkpt>
      <trkpt lat="48.04519" lon="7.01198">
        <ele>1288.68</ele>
        <time>2015-12-01T10:47:28Z</time>
      </trkpt>
      <trkpt lat="48.04538" lon="7.01199">
        <ele>1288.32</ele>
        <time>2015-12-01T10:47:47Z</time>
      </trkpt>
      <trkpt lat="48.04557" lon="7.01201">
        <ele>1286.48</ele>
        <time>2015-12-01T10:48:05Z</time>
      </trkpt>
      <trkpt lat="48.04576" lon="7.01203">
        <ele>1284.16</ele>
        <time>2015-12-01T10:48:24Z</time>
      </trkpt>
      <trkpt lat="48.04595" lon="7.01202">
        <ele>1284.32</ele>
        <time>2015-12-01T10:48:43Z</time>
      </trkpt>
      <trkpt lat="48.04614" lon="7.01204">
        <ele>1284.07</ele>
        <time>2015-12-01T10:49:01Z</time>
      </trkpt>
      <trkpt lat="48.04631" lon="7.0121">
        <ele>1282.48</ele>
        <time>2015-12-01T10:49:18Z</time>
      </trkpt>
      <trkpt lat="48.04644" lon="7.01229">
        <ele>1281.18</ele>
        <time>2015-12-01T10:49:37Z</time>
      </trkpt>
      <trkpt lat="48.04658" lon="7.0125">
        <ele>1277.6</ele>
        <time>2015-12-01T10:49:59Z</time>
      </trkpt>
      <trkpt lat="48.04672" lon="7.01268">
        <ele>1275.53</ele>
        <time>2015-12-01T10:50:19Z</time>
      </trkpt>
      <trkpt lat="48.04684" lon="7.01288">
        <ele>1275.23</ele>
        <time>2015-12-01T10:50:40Z</time>
      </trkpt>
      <trkpt lat="48.04698" lon="7.01308">
        <ele>1272.03</ele>
        <time>2015-12-01T10:51:01Z</time>
      </trkpt>
      <trkpt lat="48.04711" lon="7.01328">
        <ele>1270.52</ele>
        <time>2015-12-01T10:51:21Z</time>
      </trkpt>
      <trkpt lat="48.04724" lon="7.01347">
        <ele>1267.82</ele>
        <time>2015-12-01T10:51:42Z</time>
      </trkpt>
      <trkpt lat="48.04738" lon="7.01367">
        <ele>1266.36</ele>
        <time>2015-12-01T10:52:04Z</time>
      </trkpt>
      <trkpt lat="48.04752" lon="7.01386">
        <ele>1265.59</ele>
        <time>2015-12-01T10:52:28Z</time>
      </trkpt>
      <trkpt lat="48.04766" lon="7.01405">
        <ele>1263.67</ele>
        <time>2015-12-01T10:52:51Z</time>
      </trkpt>
      <trkpt lat="48.04782" lon="7.01418">
        <ele>1262.6</ele>
        <time>2015-12-01T10:53:15Z</time>
      </trkpt>
      <trkpt lat="48.04801" lon="7.01429">
        <ele>1259.65</ele>
        <time>2015-12-01T10:53:41Z</time>
      </trkpt>
      <trkpt lat="48.04819" lon="7.01443">
        <ele>1257.1</ele>
        <time>2015-12-01T10:54:10Z</time>
      </trkpt>
      <trkpt lat="48.04832" lon="7.01452">
        <ele>1255.98</ele>
        <time>2015-12-01T10:55:46Z</time>
      </trkpt>
      <trkpt lat="48.04838" lon="7.01456">
        <ele>1255.24</ele>
        <time>2015-12-01T11:00:38Z</time>
      </trkpt>
      <trkpt lat="48.04856" lon="7.01467">
        <ele>1252.23</ele>
        <time>2015-12-01T11:01:04Z</time>
      </trkpt>
      <trkpt lat="48.04873" lon="7.01484">
        <ele>1248.84</ele>
        <time>2015-12-01T11:01:33Z</time>
      </trkpt>
      <trkpt lat="48.04896" lon="7.01497">
        <ele>1244.86</ele>
        <time>2015-12-01T11:02:01Z</time>
      </trkpt>
      <trkpt lat="48.04913" lon="7.01512">
        <ele>1243.14</ele>
        <time>2015-12-01T11:02:26Z</time>
      </trkpt>
      <trkpt lat="48.04929" lon="7.01531">
        <ele>1240.09</ele>
        <time>2015-12-01T11:02:53Z</time>
      </trkpt>
      <trkpt lat="48.04947" lon="7.01547">
        <ele>1237.72</ele>
        <time>2015-12-01T11:03:24Z</time>
      </trkpt>
      <trkpt lat="48.04965" lon="7.01556">
        <ele>1236.31</ele>
        <time>2015-12-01T11:03:50Z</time>
      </trkpt>
      <trkpt lat="48.04977" lon="7.01581">
        <ele>1235.08</ele>
        <time>2015-12-01T11:04:11Z</time>
      </trkpt>
      <trkpt lat="48.04997" lon="7.01597">
        <ele>1233.15</ele>
        <time>2015-12-01T11:04:33Z</time>
      </trkpt>
      <trkpt lat="48.05012" lon="7.01619">
        <ele>1231.65</ele>
        <time>2015-12-01T11:04:58Z</time>
      </trkpt>
      <trkpt lat="48.05016" lon="7.01657">
        <ele>1229.62</ele>
        <time>2015-12-01T11:05:29Z</time>
      </trkpt>
      <trkpt lat="48.05022" lon="7.01682">
        <ele>1230.39</ele>
        <time>2015-12-01T11:06:12Z</time>
      </trkpt>
      <trkpt lat="48.05042" lon="7.01706">
        <ele>1227.32</ele>
        <time>2015-12-01T11:06:48Z</time>
      </trkpt>
      <trkpt lat="48.05052" lon="7.01745">
        <ele>1223.79</ele>
        <time>2015-12-01T11:07:25Z</time>
      </trkpt>
      <trkpt lat="48.05055" lon="7.01769">
        <ele>1224.09</ele>
        <time>2015-12-01T11:07:58Z</time>
      </trkpt>
      <trkpt lat="48.05073" lon="7.01783">
        <ele>1220.39</ele>
        <time>2015-12-01T11:08:47Z</time>
      </trkpt>
      <trkpt lat="48.05091" lon="7.01808">
        <ele>1218.81</ele>
        <time>2015-12-01T11:09:13Z</time>
      </trkpt>
      <trkpt lat="48.05106" lon="7.0183">
        <ele>1215.8</ele>
        <time>2015-12-01T11:09:46Z</time>
      </trkpt>
      <trkpt lat="48.05119" lon="7.01861">
        <ele>1212.13</ele>
        <time>2015-12-01T11:10:22Z</time>
      </trkpt>
      <trkpt lat="48.05118" lon="7.01891">
        <ele>1209.42</ele>
        <time>2015-12-01T11:10:50Z</time>
      </trkpt>
      <trkpt lat="48.05119" lon="7.01921">
        <ele>1207.37</ele>
        <time>2015-12-01T11:11:29Z</time>
      </trkpt>
      <trkpt lat="48.05117" lon="7.01955">
        <ele>1205</ele>
        <time>2015-12-01T11:12:08Z</time>
      </trkpt>
      <trkpt lat="48.05115" lon="7.01995">
        <ele>1203.69</ele>
        <time>2015-12-01T11:12:44Z</time>
      </trkpt>
      <trkpt lat="48.05107" lon="7.02033">
        <ele>1201.74</ele>
        <time>2015-12-01T11:13:15Z</time>
      </trkpt>
      <trkpt lat="48.05097" lon="7.02062">
        <ele>1201.43</ele>
        <time>2015-12-01T11:13:43Z</time>
      </trkpt>
      <trkpt lat="48.05087" lon="7.02093">
        <ele>1199.96</ele>
        <time>2015-12-01T11:14:20Z</time>
      </trkpt>
      <trkpt lat="48.05076" lon="7.0211">
        <ele>1200.28</ele>
        <time>2015-12-01T11:15:00Z</time>
      </trkpt>
      <trkpt lat="48.05059" lon="7.0213">
        <ele>1198.39</ele>
        <time>2015-12-01T11:15:37Z</time>
      </trkpt>
      <trkpt lat="48.05058" lon="7.02158">
        <ele>1204.96</ele>
        <time>2015-12-01T11:16:20Z</time>
      </trkpt>
      <trkpt lat="48.05066" lon="7.02185">
        <ele>1209.71</ele>
        <time>2015-12-01T11:17:05Z</time>
      </trkpt>
      <trkpt lat="48.05079" lon="7.02205">
        <ele>1210.06</ele>
        <time>2015-12-01T11:17:42Z</time>
      </trkpt>
      <trkpt lat="48.05077" lon="7.02232">
        <ele>1211.55</ele>
        <time>2015-12-01T11:18:45Z</time>
      </trkpt>
      <trkpt lat="48.05067" lon="7.02259">
        <ele>1208.58</ele>
        <time>2015-12-01T11:19:10Z</time>
      </trkpt>
      <trkpt lat="48.05058" lon="7.02287">
        <ele>1208.93</ele>
        <time>2015-12-01T11:19:34Z</time>
      </trkpt>
      <trkpt lat="48.05063" lon="7.02315">
        <ele>1209.95</ele>
        <time>2015-12-01T11:20:00Z</time>
      </trkpt>
      <trkpt lat="48.0508" lon="7.02329">
        <ele>1208.34</ele>
        <time>2015-12-01T11:20:20Z</time>
      </trkpt>
      <trkpt lat="48.05095" lon="7.02315">
        <ele>1206.09</ele>
        <time>2015-12-01T11:20:38Z</time>
      </trkpt>
      <trkpt lat="48.0511" lon="7.02298">
        <ele>1205.23</ele>
        <time>2015-12-01T11:20:57Z</time>
      </trkpt>
      <trkpt lat="48.05126" lon="7.02281">
        <ele>1204.17</ele>
        <time>2015-12-01T11:21:16Z</time>
      </trkpt>
      <trkpt lat="48.05141" lon="7.02266">
        <ele>1206.48</ele>
        <time>2015-12-01T11:21:37Z</time>
      </trkpt>
      <trkpt lat="48.05157" lon="7.0225">
        <ele>1205.39</ele>
        <time>2015-12-01T11:22:33Z</time>
      </trkpt>
      <trkpt lat="48.05175" lon="7.02245">
        <ele>1203.98</ele>
        <time>2015-12-01T11:22:52Z</time>
      </trkpt>
      <trkpt lat="48.05194" lon="7.02249">
        <ele>1206.42</ele>
        <time>2015-12-01T11:23:10Z</time>
      </trkpt>
      <trkpt lat="48.05212" lon="7.02254">
        <ele>1206.66</ele>
        <time>2015-12-01T11:23:34Z</time>
      </trkpt>
      <trkpt lat="48.0523" lon="7.0226">
        <ele>1206.56</ele>
        <time>2015-12-01T11:23:54Z</time>
      </trkpt>
      <trkpt lat="48.05249" lon="7.02266">
        <ele>1207.63</ele>
        <time>2015-12-01T11:24:16Z</time>
      </trkpt>
      <trkpt lat="48.05268" lon="7.02261">
        <ele>1209.18</ele>
        <time>2015-12-01T11:24:46Z</time>
      </trkpt>
      <trkpt lat="48.05281" lon="7.02278">
        <ele>1209.87</ele>
        <time>2015-12-01T11:25:07Z</time>
      </trkpt>
      <trkpt lat="48.0529" lon="7.02301">
        <ele>1208.56</ele>
        <time>2015-12-01T11:25:24Z</time>
      </trkpt>
      <trkpt lat="48.05298" lon="7.02327">
        <ele>1207.33</ele>
        <time>2015-12-01T11:25:44Z</time>
      </trkpt>
      <trkpt lat="48.05305" lon="7.02352">
        <ele>1205.53</ele>
        <time>2015-12-01T11:26:02Z</time>
      </trkpt>
      <trkpt lat="48.05313" lon="7.02377">
        <ele>1205.08</ele>
        <time>2015-12-01T11:26:19Z</time>
      </trkpt>
      <trkpt lat="48.05318" lon="7.02404">
        <ele>1204.42</ele>
        <time>2015-12-01T11:26:38Z</time>
      </trkpt>
      <trkpt lat="48.05321" lon="7.02412">
        <ele>1207.82</ele>
        <time>2015-12-01T11:28:06Z</time>
      </trkpt>
      <trkpt lat="48.05326" lon="7.02436">
        <ele>1206.09</ele>
        <time>2015-12-01T11:28:35Z</time>
      </trkpt>
      <trkpt lat="48.0533" lon="7.02464">
        <ele>1207.55</ele>
        <time>2015-12-01T11:28:52Z</time>
      </trkpt>
      <trkpt lat="48.05333" lon="7.02493">
        <ele>1208.43</ele>
        <time>2015-12-01T11:29:09Z</time>
      </trkpt>
      <trkpt lat="48.05333" lon="7.02522">
        <ele>1206.03</ele>
        <time>2015-12-01T11:29:26Z</time>
      </trkpt>
      <trkpt lat="48.05323" lon="7.02547">
        <ele>1202.28</ele>
        <time>2015-12-01T11:29:44Z</time>
      </trkpt>
      <trkpt lat="48.05322" lon="7.02554">
        <ele>1194.72</ele>
        <time>2015-12-01T12:37:14Z</time>
      </trkpt>
      <trkpt lat="48.05319" lon="7.02574">
        <ele>1194.49</ele>
        <time>2015-12-01T13:11:50Z</time>
      </trkpt>
      <trkpt lat="48.0532" lon="7.0256">
        <ele>1192.7</ele>
        <time>2015-12-01T13:14:45Z</time>
      </trkpt>
      <trkpt lat="48.05327" lon="7.0254">
        <ele>1194.72</ele>
        <time>2015-12-01T13:15:17Z</time>
      </trkpt>
      <trkpt lat="48.0533" lon="7.02513">
        <ele>1199.84</ele>
        <time>2015-12-01T13:15:34Z</time>
      </trkpt>
      <trkpt lat="48.05322" lon="7.02489">
        <ele>1199.03</ele>
        <time>2015-12-01T13:15:48Z</time>
      </trkpt>
      <trkpt lat="48.05315" lon="7.02466">
        <ele>1199.42</ele>
        <time>2015-12-01T13:16:04Z</time>
      </trkpt>
      <trkpt lat="48.05311" lon="7.02438">
        <ele>1198.71</ele>
        <time>2015-12-01T13:16:18Z</time>
      </trkpt>
      <trkpt lat="48.05314" lon="7.02411">
        <ele>1198.15</ele>
        <time>2015-12-01T13:16:32Z</time>
      </trkpt>
      <trkpt lat="48.05312" lon="7.02389">
        <ele>1198.6</ele>
        <time>2015-12-01T13:16:54Z</time>
      </trkpt>
      <trkpt lat="48.05306" lon="7.02362">
        <ele>1198.65</ele>
        <time>2015-12-01T13:17:11Z</time>
      </trkpt>
      <trkpt lat="48.053" lon="7.02336">
        <ele>1199.67</ele>
        <time>2015-12-01T13:17:29Z</time>
      </trkpt>
      <trkpt lat="48.05293" lon="7.02311">
        <ele>1200.21</ele>
        <time>2015-12-01T13:17:48Z</time>
      </trkpt>
      <trkpt lat="48.05285" lon="7.02286">
        <ele>1201.78</ele>
        <time>2015-12-01T13:18:07Z</time>
      </trkpt>
      <trkpt lat="48.05277" lon="7.02263">
        <ele>1203.43</ele>
        <time>2015-12-01T13:18:24Z</time>
      </trkpt>
      <trkpt lat="48.05273" lon="7.02237">
        <ele>1203.53</ele>
        <time>2015-12-01T13:18:42Z</time>
      </trkpt>
      <trkpt lat="48.05266" lon="7.02212">
        <ele>1205.49</ele>
        <time>2015-12-01T13:19:01Z</time>
      </trkpt>
      <trkpt lat="48.05259" lon="7.02187">
        <ele>1206.18</ele>
        <time>2015-12-01T13:19:20Z</time>
      </trkpt>
      <trkpt lat="48.05251" lon="7.02162">
        <ele>1207.34</ele>
        <time>2015-12-01T13:19:39Z</time>
      </trkpt>
      <trkpt lat="48.05244" lon="7.02136">
        <ele>1208.71</ele>
        <time>2015-12-01T13:19:58Z</time>
      </trkpt>
      <trkpt lat="48.05235" lon="7.02113">
        <ele>1209.4</ele>
        <time>2015-12-01T13:20:37Z</time>
      </trkpt>
      <trkpt lat="48.05227" lon="7.02088">
        <ele>1210.48</ele>
        <time>2015-12-01T13:20:55Z</time>
      </trkpt>
      <trkpt lat="48.0522" lon="7.02063">
        <ele>1211.12</ele>
        <time>2015-12-01T13:21:14Z</time>
      </trkpt>
      <trkpt lat="48.05212" lon="7.02038">
        <ele>1212.72</ele>
        <time>2015-12-01T13:21:33Z</time>
      </trkpt>
      <trkpt lat="48.05203" lon="7.02013">
        <ele>1212.58</ele>
        <time>2015-12-01T13:21:52Z</time>
      </trkpt>
      <trkpt lat="48.05194" lon="7.01989">
        <ele>1214.3</ele>
        <time>2015-12-01T13:22:11Z</time>
      </trkpt>
      <trkpt lat="48.05188" lon="7.01962">
        <ele>1214.67</ele>
        <time>2015-12-01T13:22:32Z</time>
      </trkpt>
      <trkpt lat="48.05178" lon="7.01938">
        <ele>1213.69</ele>
        <time>2015-12-01T13:22:53Z</time>
      </trkpt>
      <trkpt lat="48.0517" lon="7.01912">
        <ele>1215.39</ele>
        <time>2015-12-01T13:23:12Z</time>
      </trkpt>
      <trkpt lat="48.05168" lon="7.01884">
        <ele>1214</ele>
        <time>2015-12-01T13:23:30Z</time>
      </trkpt>
      <trkpt lat="48.05167" lon="7.01858">
        <ele>1215.19</ele>
        <time>2015-12-01T13:23:48Z</time>
      </trkpt>
      <trkpt lat="48.05169" lon="7.01831">
        <ele>1216.26</ele>
        <time>2015-12-01T13:24:07Z</time>
      </trkpt>
      <trkpt lat="48.05171" lon="7.01803">
        <ele>1216.54</ele>
        <time>2015-12-01T13:24:25Z</time>
      </trkpt>
      <trkpt lat="48.05175" lon="7.01778">
        <ele>1215.92</ele>
        <time>2015-12-01T13:24:46Z</time>
      </trkpt>
      <trkpt lat="48.05177" lon="7.0175">
        <ele>1217.46</ele>
        <time>2015-12-01T13:25:04Z</time>
      </trkpt>
      <trkpt lat="48.05179" lon="7.01722">
        <ele>1218.19</ele>
        <time>2015-12-01T13:25:23Z</time>
      </trkpt>
      <trkpt lat="48.05181" lon="7.01694">
        <ele>1218.36</ele>
        <time>2015-12-01T13:25:41Z</time>
      </trkpt>
      <trkpt lat="48.05184" lon="7.01666">
        <ele>1218.91</ele>
        <time>2015-12-01T13:25:59Z</time>
      </trkpt>
      <trkpt lat="48.05188" lon="7.01642">
        <ele>1219.34</ele>
        <time>2015-12-01T13:26:40Z</time>
      </trkpt>
      <trkpt lat="48.05188" lon="7.01613">
        <ele>1219.41</ele>
        <time>2015-12-01T13:26:55Z</time>
      </trkpt>
      <trkpt lat="48.05191" lon="7.01585">
        <ele>1218.34</ele>
        <time>2015-12-01T13:27:12Z</time>
      </trkpt>
      <trkpt lat="48.05192" lon="7.01561">
        <ele>1217.63</ele>
        <time>2015-12-01T13:27:30Z</time>
      </trkpt>
      <trkpt lat="48.05192" lon="7.01532">
        <ele>1216.5</ele>
        <time>2015-12-01T13:27:50Z</time>
      </trkpt>
      <trkpt lat="48.05192" lon="7.01502">
        <ele>1214.84</ele>
        <time>2015-12-01T13:28:08Z</time>
      </trkpt>
      <trkpt lat="48.05197" lon="7.01475">
        <ele>1213.98</ele>
        <time>2015-12-01T13:28:25Z</time>
      </trkpt>
      <trkpt lat="48.05206" lon="7.01456">
        <ele>1214.7</ele>
        <time>2015-12-01T13:29:47Z</time>
      </trkpt>
      <trkpt lat="48.05217" lon="7.01454">
        <ele>1213.98</ele>
        <time>2015-12-01T13:30:20Z</time>
      </trkpt>
      <trkpt lat="48.05212" lon="7.01468">
        <ele>1216.42</ele>
        <time>2015-12-01T13:33:07Z</time>
      </trkpt>
      <trkpt lat="48.0522" lon="7.01473">
        <ele>1218.42</ele>
        <time>2015-12-01T13:37:33Z</time>
      </trkpt>
      <trkpt lat="48.05223" lon="7.01497">
        <ele>1219.46</ele>
        <time>2015-12-01T13:38:07Z</time>
      </trkpt>
      <trkpt lat="48.05233" lon="7.01519">
        <ele>1221.36</ele>
        <time>2015-12-01T13:38:46Z</time>
      </trkpt>
      <trkpt lat="48.05251" lon="7.01535">
        <ele>1222.55</ele>
        <time>2015-12-01T13:39:25Z</time>
      </trkpt>
      <trkpt lat="48.05274" lon="7.01536">
        <ele>1223.1</ele>
        <time>2015-12-01T13:40:00Z</time>
      </trkpt>
      <trkpt lat="48.05295" lon="7.01541">
        <ele>1224.8</ele>
        <time>2015-12-01T13:40:38Z</time>
      </trkpt>
      <trkpt lat="48.05315" lon="7.01535">
        <ele>1225.49</ele>
        <time>2015-12-01T13:41:04Z</time>
      </trkpt>
      <trkpt lat="48.05339" lon="7.01526">
        <ele>1225.76</ele>
        <time>2015-12-01T13:41:32Z</time>
      </trkpt>
      <trkpt lat="48.05361" lon="7.01523">
        <ele>1226.44</ele>
        <time>2015-12-01T13:42:07Z</time>
      </trkpt>
      <trkpt lat="48.0538" lon="7.0153">
        <ele>1229.1</ele>
        <time>2015-12-01T13:45:10Z</time>
      </trkpt>
      <trkpt lat="48.05401" lon="7.01541">
        <ele>1232.54</ele>
        <time>2015-12-01T13:45:50Z</time>
      </trkpt>
      <trkpt lat="48.05423" lon="7.01555">
        <ele>1234.76</ele>
        <time>2015-12-01T13:46:29Z</time>
      </trkpt>
      <trkpt lat="48.05446" lon="7.01567">
        <ele>1238.16</ele>
        <time>2015-12-01T13:47:11Z</time>
      </trkpt>
      <trkpt lat="48.05467" lon="7.01583">
        <ele>1241.45</ele>
        <time>2015-12-01T13:47:50Z</time>
      </trkpt>
      <trkpt lat="48.05489" lon="7.01595">
        <ele>1241.77</ele>
        <time>2015-12-01T13:48:28Z</time>
      </trkpt>
      <trkpt lat="48.05511" lon="7.01607">
        <ele>1243.47</ele>
        <time>2015-12-01T13:49:04Z</time>
      </trkpt>
      <trkpt lat="48.05532" lon="7.01624">
        <ele>1245.39</ele>
        <time>2015-12-01T13:49:39Z</time>
      </trkpt>
      <trkpt lat="48.05549" lon="7.01638">
        <ele>1244.96</ele>
        <time>2015-12-01T13:50:12Z</time>
      </trkpt>
      <trkpt lat="48.05569" lon="7.01651">
        <ele>1246.4</ele>
        <time>2015-12-01T13:50:46Z</time>
      </trkpt>
      <trkpt lat="48.05588" lon="7.01675">
        <ele>1248.34</ele>
        <time>2015-12-01T13:51:23Z</time>
      </trkpt>
      <trkpt lat="48.05608" lon="7.01688">
        <ele>1249.31</ele>
        <time>2015-12-01T13:52:00Z</time>
      </trkpt>
      <trkpt lat="48.05627" lon="7.01709">
        <ele>1250.16</ele>
        <time>2015-12-01T13:52:39Z</time>
      </trkpt>
      <trkpt lat="48.05637" lon="7.0173">
        <ele>1250.95</ele>
        <time>2015-12-01T13:53:08Z</time>
      </trkpt>
      <trkpt lat="48.05637" lon="7.01759">
        <ele>1254.57</ele>
        <time>2015-12-01T13:53:55Z</time>
      </trkpt>
      <trkpt lat="48.05639" lon="7.01786">
        <ele>1255.67</ele>
        <time>2015-12-01T13:56:15Z</time>
      </trkpt>
      <trkpt lat="48.05657" lon="7.01785">
        <ele>1254.34</ele>
        <time>2015-12-01T13:56:40Z</time>
      </trkpt>
      <trkpt lat="48.05673" lon="7.01793">
        <ele>1252.36</ele>
        <time>2015-12-01T13:57:12Z</time>
      </trkpt>
      <trkpt lat="48.05692" lon="7.01801">
        <ele>1250.72</ele>
        <time>2015-12-01T13:57:44Z</time>
      </trkpt>
      <trkpt lat="48.0571" lon="7.01798">
        <ele>1248.69</ele>
        <time>2015-12-01T13:58:11Z</time>
      </trkpt>
      <trkpt lat="48.05731" lon="7.0179">
        <ele>1246.86</ele>
        <time>2015-12-01T13:58:42Z</time>
      </trkpt>
      <trkpt lat="48.05751" lon="7.01784">
        <ele>1243.8</ele>
        <time>2015-12-01T13:59:11Z</time>
      </trkpt>
      <trkpt lat="48.05774" lon="7.01803">
        <ele>1242.6</ele>
        <time>2015-12-01T13:59:40Z</time>
      </trkpt>
      <trkpt lat="48.05798" lon="7.01796">
        <ele>1237.96</ele>
        <time>2015-12-01T14:00:15Z</time>
      </trkpt>
      <trkpt lat="48.0582" lon="7.01793">
        <ele>1235.22</ele>
        <time>2015-12-01T14:00:43Z</time>
      </trkpt>
      <trkpt lat="48.05839" lon="7.01798">
        <ele>1232.84</ele>
        <time>2015-12-01T14:01:13Z</time>
      </trkpt>
      <trkpt lat="48.05861" lon="7.01792">
        <ele>1228.56</ele>
        <time>2015-12-01T14:01:45Z</time>
      </trkpt>
      <trkpt lat="48.05885" lon="7.01779">
        <ele>1224</ele>
        <time>2015-12-01T14:02:19Z</time>
      </trkpt>
      <trkpt lat="48.05901" lon="7.01778">
        <ele>1223</ele>
        <time>2015-12-01T14:04:01Z</time>
      </trkpt>
      <trkpt lat="48.05916" lon="7.0177">
        <ele>1218.58</ele>
        <time>2015-12-01T14:06:30Z</time>
      </trkpt>
      <trkpt lat="48.05931" lon="7.01757">
        <ele>1215.63</ele>
        <time>2015-12-01T14:06:56Z</time>
      </trkpt>
      <trkpt lat="48.05949" lon="7.0174">
        <ele>1212.36</ele>
        <time>2015-12-01T14:07:21Z</time>
      </trkpt>
      <trkpt lat="48.0596" lon="7.01718">
        <ele>1210.07</ele>
        <time>2015-12-01T14:07:45Z</time>
      </trkpt>
      <trkpt lat="48.05974" lon="7.01705">
        <ele>1206.9</ele>
        <time>2015-12-01T14:08:09Z</time>
      </trkpt>
      <trkpt lat="48.05986" lon="7.0173">
        <ele>1205.43</ele>
        <time>2015-12-01T14:10:42Z</time>
      </trkpt>
      <trkpt lat="48.05983" lon="7.01757">
        <ele>1207.06</ele>
        <time>2015-12-01T14:11:13Z</time>
      </trkpt>
      <trkpt lat="48.05973" lon="7.01779">
        <ele>1208.61</ele>
        <time>2015-12-01T14:11:38Z</time>
      </trkpt>
      <trkpt lat="48.05961" lon="7.01799">
        <ele>1209.6</ele>
        <time>2015-12-01T14:12:05Z</time>
      </trkpt>
      <trkpt lat="48.05951" lon="7.01823">
        <ele>1211.99</ele>
        <time>2015-12-01T14:12:30Z</time>
      </trkpt>
      <trkpt lat="48.05943" lon="7.01846">
        <ele>1213.67</ele>
        <time>2015-12-01T14:12:58Z</time>
      </trkpt>
      <trkpt lat="48.05931" lon="7.01867">
        <ele>1214.84</ele>
        <time>2015-12-01T14:13:27Z</time>
      </trkpt>
      <trkpt lat="48.05918" lon="7.01885">
        <ele>1217.37</ele>
        <time>2015-12-01T14:13:58Z</time>
      </trkpt>
      <trkpt lat="48.05906" lon="7.01904">
        <ele>1219</ele>
        <time>2015-12-01T14:14:33Z</time>
      </trkpt>
      <trkpt lat="48.05898" lon="7.0192">
        <ele>1220.78</ele>
        <time>2015-12-01T14:15:41Z</time>
      </trkpt>
      <trkpt lat="48.05877" lon="7.01937">
        <ele>1223.73</ele>
        <time>2015-12-01T14:16:43Z</time>
      </trkpt>
      <trkpt lat="48.05858" lon="7.0194">
        <ele>1226.25</ele>
        <time>2015-12-01T14:17:15Z</time>
      </trkpt>
      <trkpt lat="48.05842" lon="7.0195">
        <ele>1229.61</ele>
        <time>2015-12-01T14:17:46Z</time>
      </trkpt>
      <trkpt lat="48.05829" lon="7.01965">
        <ele>1231.32</ele>
        <time>2015-12-01T14:18:24Z</time>
      </trkpt>
      <trkpt lat="48.05813" lon="7.01968">
        <ele>1236.44</ele>
        <time>2015-12-01T14:19:01Z</time>
      </trkpt>
      <trkpt lat="48.05795" lon="7.01962">
        <ele>1239.85</ele>
        <time>2015-12-01T14:20:07Z</time>
      </trkpt>
      <trkpt lat="48.05778" lon="7.01955">
        <ele>1243.45</ele>
        <time>2015-12-01T14:20:38Z</time>
      </trkpt>
      <trkpt lat="48.05763" lon="7.01957">
        <ele>1245.6</ele>
        <time>2015-12-01T14:21:31Z</time>
      </trkpt>
      <trkpt lat="48.05749" lon="7.01952">
        <ele>1248.39</ele>
        <time>2015-12-01T14:22:16Z</time>
      </trkpt>
      <trkpt lat="48.0573" lon="7.01945">
        <ele>1251.83</ele>
        <time>2015-12-01T14:23:01Z</time>
      </trkpt>
      <trkpt lat="48.05702" lon="7.0193">
        <ele>1253.18</ele>
        <time>2015-12-01T14:23:38Z</time>
      </trkpt>
      <trkpt lat="48.05679" lon="7.01915">
        <ele>1254.23</ele>
        <time>2015-12-01T14:25:25Z</time>
      </trkpt>
      <trkpt lat="48.05667" lon="7.01897">
        <ele>1256.64</ele>
        <time>2015-12-01T14:25:49Z</time>
      </trkpt>
      <trkpt lat="48.0565" lon="7.01891">
        <ele>1257.39</ele>
        <time>2015-12-01T14:26:18Z</time>
      </trkpt>
      <trkpt lat="48.05635" lon="7.01906">
        <ele>1257.39</ele>
        <time>2015-12-01T14:26:46Z</time>
      </trkpt>
      <trkpt lat="48.05615" lon="7.01914">
        <ele>1258.43</ele>
        <time>2015-12-01T14:27:40Z</time>
      </trkpt>
      <trkpt lat="48.05594" lon="7.01922">
        <ele>1258.98</ele>
        <time>2015-12-01T14:28:00Z</time>
      </trkpt>
      <trkpt lat="48.05574" lon="7.01923">
        <ele>1260.47</ele>
        <time>2015-12-01T14:28:23Z</time>
      </trkpt>
      <trkpt lat="48.05556" lon="7.01917">
        <ele>1261.16</ele>
        <time>2015-12-01T14:28:49Z</time>
      </trkpt>
      <trkpt lat="48.05538" lon="7.01908">
        <ele>1262.96</ele>
        <time>2015-12-01T14:29:16Z</time>
      </trkpt>
      <trkpt lat="48.05519" lon="7.01891">
        <ele>1264.01</ele>
        <time>2015-12-01T14:29:41Z</time>
      </trkpt>
      <trkpt lat="48.05502" lon="7.01886">
        <ele>1263.42</ele>
        <time>2015-12-01T14:30:17Z</time>
      </trkpt>
      <trkpt lat="48.05486" lon="7.01886">
        <ele>1263.23</ele>
        <time>2015-12-01T14:30:44Z</time>
      </trkpt>
      <trkpt lat="48.05469" lon="7.01894">
        <ele>1262.92</ele>
        <time>2015-12-01T14:31:28Z</time>
      </trkpt>
      <trkpt lat="48.05448" lon="7.01885">
        <ele>1261.72</ele>
        <time>2015-12-01T14:32:03Z</time>
      </trkpt>
      <trkpt lat="48.05427" lon="7.0187">
        <ele>1261.56</ele>
        <time>2015-12-01T14:32:39Z</time>
      </trkpt>
      <trkpt lat="48.05405" lon="7.01854">
        <ele>1260.47</ele>
        <time>2015-12-01T14:33:13Z</time>
      </trkpt>
      <trkpt lat="48.05382" lon="7.01841">
        <ele>1257.37</ele>
        <time>2015-12-01T14:33:44Z</time>
      </trkpt>
      <trkpt lat="48.05364" lon="7.01828">
        <ele>1254.92</ele>
        <time>2015-12-01T14:34:24Z</time>
      </trkpt>
      <trkpt lat="48.05345" lon="7.01823">
        <ele>1252.4</ele>
        <time>2015-12-01T14:35:11Z</time>
      </trkpt>
      <trkpt lat="48.05337" lon="7.01797">
        <ele>1251.31</ele>
        <time>2015-12-01T14:35:54Z</time>
      </trkpt>
      <trkpt lat="48.05322" lon="7.01778">
        <ele>1249.81</ele>
        <time>2015-12-01T14:36:27Z</time>
      </trkpt>
      <trkpt lat="48.05305" lon="7.01763">
        <ele>1246.85</ele>
        <time>2015-12-01T14:37:06Z</time>
      </trkpt>
      <trkpt lat="48.05296" lon="7.01737">
        <ele>1245.67</ele>
        <time>2015-12-01T14:37:40Z</time>
      </trkpt>
      <trkpt lat="48.05282" lon="7.01721">
        <ele>1243.88</ele>
        <time>2015-12-01T14:38:05Z</time>
      </trkpt>
      <trkpt lat="48.05267" lon="7.01705">
        <ele>1242.07</ele>
        <time>2015-12-01T14:38:29Z</time>
      </trkpt>
      <trkpt lat="48.05252" lon="7.01687">
        <ele>1239.42</ele>
        <time>2015-12-01T14:38:52Z</time>
      </trkpt>
      <trkpt lat="48.05236" lon="7.01671">
        <ele>1237.46</ele>
        <time>2015-12-01T14:39:14Z</time>
      </trkpt>
      <trkpt lat="48.05223" lon="7.0165">
        <ele>1236.84</ele>
        <time>2015-12-01T14:39:37Z</time>
      </trkpt>
      <trkpt lat="48.05216" lon="7.0162">
        <ele>1236.5</ele>
        <time>2015-12-01T14:40:07Z</time>
      </trkpt>
      <trkpt lat="48.0521" lon="7.01588">
        <ele>1235.67</ele>
        <time>2015-12-01T14:40:29Z</time>
      </trkpt>
      <trkpt lat="48.05204" lon="7.0156">
        <ele>1235.33</ele>
        <time>2015-12-01T14:41:09Z</time>
      </trkpt>
      <trkpt lat="48.05212" lon="7.0154">
        <ele>1235.52</ele>
        <time>2015-12-01T14:42:06Z</time>
      </trkpt>
      <trkpt lat="48.05209" lon="7.01556">
        <ele>1235.87</ele>
        <time>2015-12-01T14:43:53Z</time>
      </trkpt>
      <trkpt lat="48.05214" lon="7.01555">
        <ele>1235.15</ele>
        <time>2015-12-01T14:46:26Z</time>
      </trkpt>
      <trkpt lat="48.05207" lon="7.01541">
        <ele>1234.05</ele>
        <time>2015-12-01T14:48:04Z</time>
      </trkpt>
      <trkpt lat="48.05215" lon="7.01515">
        <ele>1232.23</ele>
        <time>2015-12-01T14:48:35Z</time>
      </trkpt>
      <trkpt lat="48.05213" lon="7.01485">
        <ele>1230.97</ele>
        <time>2015-12-01T14:49:04Z</time>
      </trkpt>
      <trkpt lat="48.05218" lon="7.01457">
        <ele>1229.68</ele>
        <time>2015-12-01T14:49:33Z</time>
      </trkpt>
    </trkseg>
  </trk>
</gpx>